Time;durP1;ratioP1;P1;durP2;ratioP2;P2;SDS_P1;SDS_P2;PMS_P1;PMS_P2;Temp;Humidity;BMP_temperature;BMP_pressure;BME280_temperature;BME280_humidity;BME280_pressure;Samples;Min_cycle;Max_cycle;Signal;HPM_P1;HPM_P2
2021/10/12 00:00:10;;;;;;;18.77;14.37;;;10.10;99.90;;;;;;4953042;28;20201;-54
2021/10/12 00:02:36;;;;;;;17.63;13.70;;;10.00;99.90;;;;;;4953119;28;20177;-54
2021/10/12 00:05:02;;;;;;;16.10;14.40;;;10.60;99.90;;;;;;4954517;28;20856;-54
2021/10/12 00:07:27;;;;;;;15.90;13.50;;;10.40;99.90;;;;;;4954402;28;20686;-54
2021/10/12 00:09:53;;;;;;;21.50;15.17;;;10.30;99.90;;;;;;4951998;28;20237;-54
2021/10/12 00:12:19;;;;;;;23.80;14.97;;;10.20;99.90;;;;;;4955094;28;20510;-54
2021/10/12 00:14:44;;;;;;;19.50;15.10;;;10.30;99.90;;;;;;4953713;28;20177;-54
2021/10/12 00:17:11;;;;;;;18.80;13.90;;;10.50;99.90;;;;;;4954981;28;20189;-54
2021/10/12 00:19:37;;;;;;;20.27;14.18;;;10.40;99.90;;;;;;4953474;28;20267;-54
2021/10/12 00:22:03;;;;;;;22.30;15.43;;;10.60;99.90;;;;;;4951527;28;20587;-54
2021/10/12 00:24:29;;;;;;;18.40;13.02;;;10.30;99.90;;;;;;4954533;28;20189;-55
2021/10/12 00:26:54;;;;;;;21.37;14.53;;;10.60;99.90;;;;;;4955017;28;20709;-55
2021/10/12 00:29:20;;;;;;;21.63;15.67;;;10.10;99.90;;;;;;4948279;28;20235;-54
2021/10/12 00:31:46;;;;;;;28.57;15.40;;;10.30;99.90;;;;;;4949908;28;20193;-54
2021/10/12 00:34:11;;;;;;;16.30;13.60;;;10.50;99.90;;;;;;4954539;28;20273;-54
2021/10/12 00:36:37;;;;;;;20.77;13.10;;;10.40;99.90;;;;;;4954829;28;20581;-54
2021/10/12 00:39:03;;;;;;;21.37;15.40;;;10.10;99.90;;;;;;4952016;28;20279;-55
2021/10/12 00:41:29;;;;;;;19.90;15.07;;;10.10;99.90;;;;;;4954253;28;20425;-54
2021/10/12 00:43:55;;;;;;;20.40;14.60;;;10.30;99.90;;;;;;4957852;28;20535;-54
2021/10/12 00:46:20;;;;;;;19.33;14.37;;;10.20;99.90;;;;;;4949884;28;20450;-54
2021/10/12 00:48:46;;;;;;;20.20;15.67;;;10.10;99.90;;;;;;4953589;28;20296;-54
2021/10/12 00:51:12;;;;;;;17.33;14.20;;;10.20;99.90;;;;;;4954436;28;20272;-55
2021/10/12 00:53:37;;;;;;;18.80;13.87;;;10.30;99.90;;;;;;4953964;28;20503;-54
2021/10/12 00:56:04;;;;;;;21.77;15.70;;;10.10;99.90;;;;;;4952845;28;20257;-54
2021/10/12 00:58:30;;;;;;;17.35;14.25;;;10.10;99.90;;;;;;4950061;28;20216;-54
2021/10/12 01:00:56;;;;;;;18.87;13.10;;;10.00;99.90;;;;;;4947058;28;20558;-54
2021/10/12 01:03:22;;;;;;;16.13;13.97;;;10.00;99.90;;;;;;4953329;28;20449;-54
2021/10/12 01:05:47;;;;;;;17.00;13.33;;;10.20;99.90;;;;;;4954610;28;20287;-54
2021/10/12 01:08:13;;;;;;;20.10;14.03;;;10.30;99.90;;;;;;4946622;28;20574;-54
2021/10/12 01:10:39;;;;;;;16.30;13.00;;;10.10;99.90;;;;;;4953145;28;20181;-54
2021/10/12 01:13:07;;;;;;;15.97;13.20;;;10.20;99.90;;;;;;4953628;28;20429;-55
2021/10/12 01:15:33;;;;;;;19.55;13.40;;;9.80;99.90;;;;;;4950777;28;20189;-55
2021/10/12 01:18:02;;;;;;;16.13;13.50;;;9.80;99.90;;;;;;4952718;28;20606;-54
2021/10/12 01:20:36;;;;;;;16.30;13.80;;;9.80;99.90;;;;;;4957719;28;20285;-55
2021/10/12 01:23:02;;;;;;;17.10;14.15;;;10.00;99.90;;;;;;4957991;28;20185;-54
2021/10/12 01:25:27;;;;;;;19.13;14.87;;;10.00;99.90;;;;;;4949198;28;20211;-54
2021/10/12 01:27:53;;;;;;;19.67;14.87;;;10.00;99.90;;;;;;4953395;28;20192;-54
2021/10/12 01:30:19;;;;;;;21.43;15.30;;;10.10;99.90;;;;;;4950058;28;20177;-54
2021/10/12 01:32:45;;;;;;;17.90;14.23;;;10.00;99.90;;;;;;4953431;28;20180;-54
2021/10/12 01:35:13;;;;;;;20.35;15.00;;;10.30;99.90;;;;;;4953543;28;20189;-54
2021/10/12 01:37:38;;;;;;;23.08;17.30;;;10.00;99.90;;;;;;4952710;28;20189;-54
2021/10/12 01:40:07;;;;;;;19.73;15.80;;;10.30;99.90;;;;;;4951488;28;20220;-54
2021/10/12 01:42:33;;;;;;;20.70;15.75;;;10.20;99.90;;;;;;4953559;28;20640;-54
2021/10/12 01:45:00;;;;;;;19.27;16.08;;;10.30;99.90;;;;;;4954420;28;20204;-54
2021/10/12 01:47:27;;;;;;;18.80;15.05;;;10.10;99.90;;;;;;4953086;28;20204;-55
2021/10/12 01:49:53;;;;;;;19.83;15.27;;;10.00;99.90;;;;;;4951945;28;20220;-54
2021/10/12 01:52:19;;;;;;;17.60;13.90;;;10.30;99.90;;;;;;4952931;28;20181;-54
2021/10/12 01:54:46;;;;;;;17.63;14.27;;;10.30;99.90;;;;;;4950849;28;20419;-54
2021/10/12 01:57:11;;;;;;;16.77;14.32;;;10.20;99.90;;;;;;4952565;28;20666;-54
2021/10/12 01:59:37;;;;;;;19.67;15.23;;;10.20;99.90;;;;;;4950545;28;20208;-54
2021/10/12 02:02:03;;;;;;;17.97;14.80;;;10.20;99.90;;;;;;4950035;28;20446;-54
2021/10/12 02:04:30;;;;;;;18.63;14.43;;;10.30;99.90;;;;;;4952644;28;20416;-54
2021/10/12 02:06:56;;;;;;;17.15;14.60;;;10.30;99.90;;;;;;4949194;28;20273;-54
2021/10/12 02:09:21;;;;;;;16.57;13.00;;;10.30;99.90;;;;;;4949461;28;20264;-55
2021/10/12 02:11:47;;;;;;;19.37;13.97;;;10.60;99.90;;;;;;4953232;28;20661;-54
2021/10/12 02:14:13;;;;;;;18.20;14.90;;;10.50;99.90;;;;;;4953556;28;20207;-54
2021/10/12 02:16:39;;;;;;;14.20;12.23;;;10.60;99.90;;;;;;4951764;28;20216;-54
2021/10/12 02:19:05;;;;;;;17.17;14.10;;;10.40;99.90;;;;;;4950492;28;20460;-54
2021/10/12 02:21:31;;;;;;;16.35;13.60;;;10.50;99.90;;;;;;4952899;28;20212;-54
2021/10/12 02:23:56;;;;;;;17.50;13.23;;;10.40;99.90;;;;;;4949152;28;20186;-54
2021/10/12 02:26:22;;;;;;;19.47;15.20;;;10.40;99.90;;;;;;4952518;28;20199;-54
2021/10/12 02:28:47;;;;;;;17.37;14.57;;;10.10;99.90;;;;;;4951852;28;20686;-54
2021/10/12 02:31:14;;;;;;;18.33;15.43;;;10.20;99.90;;;;;;4950415;28;20201;-54
2021/10/12 02:33:40;;;;;;;17.52;14.10;;;10.40;99.90;;;;;;4956593;28;20181;-54
2021/10/12 02:36:06;;;;;;;19.23;14.47;;;10.20;99.90;;;;;;4952257;28;20261;-54
2021/10/12 02:38:31;;;;;;;17.60;14.53;;;10.40;99.90;;;;;;4951688;28;20232;-55
2021/10/12 02:40:57;;;;;;;17.77;14.53;;;10.60;99.90;;;;;;4941071;28;20204;-55
2021/10/12 02:43:23;;;;;;;17.77;13.53;;;10.60;99.90;;;;;;4951573;28;20492;-55
2021/10/12 02:45:49;;;;;;;19.50;14.30;;;10.50;99.90;;;;;;4955994;28;20840;-55
2021/10/12 02:48:15;;;;;;;16.10;13.73;;;10.60;99.90;;;;;;4952659;28;20844;-54
2021/10/12 02:50:43;;;;;;;19.50;13.80;;;10.80;99.90;;;;;;4950601;28;20559;-54
2021/10/12 02:53:13;;;;;;;16.30;13.88;;;10.60;99.90;;;;;;4951056;28;20177;-55
2021/10/12 02:55:38;;;;;;;18.33;14.15;;;10.60;99.90;;;;;;4948827;28;20288;-55
2021/10/12 02:58:05;;;;;;;20.70;14.00;;;10.50;99.90;;;;;;4950484;28;20466;-55
2021/10/12 03:00:30;;;;;;;18.38;14.18;;;10.50;99.90;;;;;;4948208;28;20192;-55
2021/10/12 03:02:56;;;;;;;17.77;13.80;;;10.50;99.90;;;;;;4951640;28;20197;-55
2021/10/12 03:05:22;;;;;;;21.60;14.73;;;10.40;99.90;;;;;;4952145;28;20444;-55
2021/10/12 03:07:47;;;;;;;19.33;13.67;;;10.60;99.90;;;;;;4951540;28;20283;-54
2021/10/12 03:10:13;;;;;;;19.40;13.50;;;10.50;99.90;;;;;;4945466;28;20214;-55
2021/10/12 03:12:39;;;;;;;17.93;13.77;;;10.50;99.90;;;;;;4951936;28;20269;-55
2021/10/12 03:15:05;;;;;;;14.40;11.90;;;10.60;99.90;;;;;;4947140;28;20625;-55
2021/10/12 03:17:32;;;;;;;14.98;12.50;;;10.60;99.90;;;;;;4953460;28;20201;-54
2021/10/12 03:19:57;;;;;;;17.50;13.00;;;10.70;99.90;;;;;;4953755;28;20212;-55
2021/10/12 03:22:23;;;;;;;13.97;11.50;;;10.90;99.90;;;;;;4953199;28;20217;-55
2021/10/12 03:24:49;;;;;;;16.63;13.00;;;10.60;99.90;;;;;;4951393;28;20647;-55
2021/10/12 03:27:15;;;;;;;16.53;13.20;;;10.90;99.90;;;;;;4955577;28;20651;-55
2021/10/12 03:29:42;;;;;;;17.83;12.60;;;10.90;99.90;;;;;;4952952;28;20208;-55
2021/10/12 03:32:08;;;;;;;17.92;12.50;;;10.90;99.90;;;;;;4954837;28;20449;-55
2021/10/12 03:34:34;;;;;;;16.93;13.00;;;11.00;99.90;;;;;;4955669;28;20186;-55
2021/10/12 03:37:00;;;;;;;15.85;12.55;;;10.90;99.90;;;;;;4955268;28;20432;-54
2021/10/12 03:39:27;;;;;;;16.55;12.98;;;11.10;99.90;;;;;;4950444;28;20205;-55
2021/10/12 03:41:53;;;;;;;13.40;10.93;;;10.80;99.90;;;;;;4954609;28;20193;-55
2021/10/12 03:44:21;;;;;;;14.43;12.00;;;11.00;99.90;;;;;;4956149;28;20197;-54
2021/10/12 03:46:47;;;;;;;16.33;11.90;;;10.90;99.90;;;;;;4951717;28;20471;-55
2021/10/12 03:49:13;;;;;;;16.65;12.73;;;11.00;99.90;;;;;;4950327;28;20240;-55
2021/10/12 03:51:43;;;;;;;17.13;13.40;;;11.00;99.90;;;;;;4955772;28;20291;-55
2021/10/12 03:54:12;;;;;;;15.98;12.75;;;11.10;99.90;;;;;;4950792;28;20551;-55
2021/10/12 03:56:38;;;;;;;14.52;12.15;;;10.80;99.90;;;;;;4951817;28;20272;-54
2021/10/12 03:59:04;;;;;;;16.02;12.18;;;10.90;99.90;;;;;;4954056;28;20278;-54
2021/10/12 04:01:30;;;;;;;17.40;12.17;;;10.80;99.90;;;;;;4953297;28;20196;-55
2021/10/12 04:03:55;;;;;;;17.53;12.67;;;10.60;99.90;;;;;;4954913;28;20431;-54
2021/10/12 04:06:21;;;;;;;18.47;12.90;;;10.80;99.90;;;;;;4953208;28;20843;-54
2021/10/12 04:08:47;;;;;;;17.07;12.80;;;10.90;99.90;;;;;;4952295;28;20237;-54
2021/10/12 04:11:12;;;;;;;17.10;12.50;;;10.70;99.90;;;;;;4952809;28;20223;-54
2021/10/12 04:13:38;;;;;;;18.00;12.53;;;10.90;99.90;;;;;;4954921;28;20237;-55
2021/10/12 04:16:04;;;;;;;16.47;11.77;;;10.80;99.90;;;;;;4949656;28;20185;-54
2021/10/12 04:18:30;;;;;;;16.03;12.00;;;10.80;99.90;;;;;;4948029;28;20471;-55
2021/10/12 04:20:56;;;;;;;19.40;12.23;;;10.90;99.90;;;;;;4952386;28;20487;-55
2021/10/12 04:23:22;;;;;;;13.50;11.40;;;10.70;99.90;;;;;;4948234;28;20252;-54
2021/10/12 04:25:47;;;;;;;12.90;11.57;;;10.60;99.90;;;;;;4949842;28;20781;-55
2021/10/12 04:28:14;;;;;;;13.87;12.20;;;10.90;99.90;;;;;;4952701;28;20220;-54
2021/10/12 04:30:42;;;;;;;15.98;11.98;;;10.70;99.90;;;;;;4950815;28;20432;-55
2021/10/12 04:33:08;;;;;;;15.32;12.55;;;10.80;99.90;;;;;;4953779;28;20202;-55
2021/10/12 04:35:35;;;;;;;16.27;12.80;;;10.90;99.90;;;;;;4960921;28;20223;-55
2021/10/12 04:38:01;;;;;;;13.93;11.48;;;10.70;99.90;;;;;;4963425;28;20435;-55
2021/10/12 04:40:29;;;;;;;15.30;11.30;;;10.90;99.90;;;;;;4948830;28;20264;-55
2021/10/12 04:42:56;;;;;;;14.00;11.48;;;11.10;99.90;;;;;;4952099;28;20185;-55
2021/10/12 04:45:22;;;;;;;18.92;11.93;;;11.20;99.90;;;;;;4950027;28;20182;-55
2021/10/12 04:47:48;;;;;;;17.40;12.33;;;10.80;99.90;;;;;;4952496;28;20554;-55
2021/10/12 04:50:14;;;;;;;17.73;10.97;;;11.00;99.90;;;;;;4953156;28;20442;-55
2021/10/12 04:52:42;;;;;;;16.13;12.00;;;10.90;99.90;;;;;;4953860;28;20438;-55
2021/10/12 04:55:08;;;;;;;17.38;12.95;;;10.90;99.90;;;;;;4948048;28;20185;-55
2021/10/12 04:57:33;;;;;;;17.63;11.60;;;10.90;99.90;;;;;;4952987;28;20559;-55
2021/10/12 04:59:59;;;;;;;12.60;10.50;;;11.10;99.90;;;;;;4951103;28;20494;-55
2021/10/12 05:02:24;;;;;;;14.57;11.70;;;11.20;99.90;;;;;;4949364;29;20269;-55
2021/10/12 05:04:50;;;;;;;12.50;10.53;;;10.90;99.90;;;;;;4952398;28;20268;-55
2021/10/12 05:07:16;;;;;;;16.97;11.37;;;11.10;99.90;;;;;;4951565;28;20218;-55
2021/10/12 05:09:41;;;;;;;13.00;10.97;;;10.90;99.90;;;;;;4948603;29;20264;-55
2021/10/12 05:12:07;;;;;;;15.60;11.47;;;10.80;99.90;;;;;;4946347;28;20243;-55
2021/10/12 05:14:33;;;;;;;14.17;10.50;;;10.80;99.90;;;;;;4950245;28;20189;-55
2021/10/12 05:17:00;;;;;;;16.23;10.93;;;10.80;99.90;;;;;;4953171;29;20187;-55
2021/10/12 05:19:26;;;;;;;15.13;11.90;;;10.90;99.90;;;;;;4952541;29;20211;-55
2021/10/12 05:21:52;;;;;;;22.47;20.07;;;10.60;99.90;;;;;;4952982;28;20588;-55
2021/10/12 05:24:17;;;;;;;21.30;13.47;;;10.40;99.90;;;;;;4949397;29;20419;-55
2021/10/12 05:26:43;;;;;;;18.93;13.60;;;10.40;99.90;;;;;;4954610;28;20227;-55
2021/10/12 05:29:12;;;;;;;18.47;12.50;;;10.60;99.90;;;;;;4952579;29;20560;-55
2021/10/12 05:31:39;;;;;;;15.52;12.25;;;10.60;99.90;;;;;;4946234;28;20189;-55
2021/10/12 05:34:05;;;;;;;16.88;11.70;;;11.00;99.90;;;;;;4950791;29;20636;-55
2021/10/12 05:36:31;;;;;;;16.60;12.10;;;10.60;99.90;;;;;;4953140;29;20191;-55
2021/10/12 05:38:56;;;;;;;16.63;12.30;;;10.70;99.90;;;;;;4949403;28;20472;-55
2021/10/12 05:41:22;;;;;;;21.63;13.17;;;10.90;99.90;;;;;;4951929;29;20217;-55
2021/10/12 05:43:48;;;;;;;17.37;13.40;;;11.00;99.90;;;;;;4952440;29;20193;-55
2021/10/12 05:46:14;;;;;;;13.20;11.20;;;10.70;99.90;;;;;;4947917;28;20403;-56
2021/10/12 05:48:39;;;;;;;17.57;11.93;;;11.00;99.90;;;;;;4946263;28;20602;-56
2021/10/12 05:51:07;;;;;;;14.60;11.90;;;10.40;99.90;;;;;;4946273;28;20543;-56
2021/10/12 05:53:43;;;;;;;14.77;11.73;;;10.30;99.90;;;;;;4955676;28;20189;-56
2021/10/12 05:56:14;;;;;;;14.27;12.32;;;10.20;99.90;;;;;;4942788;28;20256;-57
2021/10/12 05:58:49;;;;;;;15.27;10.93;;;10.50;99.90;;;;;;4951292;28;20222;-56
2021/10/12 06:01:16;;;;;;;15.90;11.63;;;10.40;99.90;;;;;;4942217;28;20176;-56
2021/10/12 06:03:42;;;;;;;14.50;11.40;;;10.80;99.90;;;;;;4949054;28;20193;-56
2021/10/12 06:06:08;;;;;;;18.73;11.95;;;10.60;99.90;;;;;;4948521;28;20209;-56
2021/10/12 06:08:34;;;;;;;17.15;13.20;;;10.60;99.90;;;;;;4950762;28;20213;-56
2021/10/12 06:11:01;;;;;;;16.83;12.83;;;10.60;99.90;;;;;;4950271;28;20185;-57
2021/10/12 06:13:28;;;;;;;21.40;15.02;;;10.70;99.90;;;;;;4950196;29;20444;-57
2021/10/12 06:15:54;;;;;;;13.90;10.90;;;10.70;99.90;;;;;;4948086;28;20216;-57
2021/10/12 06:18:20;;;;;;;18.02;12.80;;;10.80;99.90;;;;;;4951316;28;20205;-57
2021/10/12 06:20:50;;;;;;;15.30;12.27;;;10.90;99.90;;;;;;4943566;28;20678;-55
2021/10/12 06:23:17;;;;;;;16.52;12.52;;;10.50;99.90;;;;;;4951339;28;20181;-55
2021/10/12 06:25:43;;;;;;;16.98;12.40;;;10.70;99.90;;;;;;4947904;29;20240;-55
2021/10/12 06:28:12;;;;;;;17.30;12.10;;;10.50;99.90;;;;;;4952040;28;20228;-58
2021/10/12 06:30:38;;;;;;;14.52;12.60;;;10.40;99.90;;;;;;4949303;28;20212;-56
2021/10/12 06:33:05;;;;;;;15.57;13.27;;;10.70;99.90;;;;;;4951014;28;20682;-55
2021/10/12 06:35:31;;;;;;;16.60;12.57;;;10.30;99.90;;;;;;4957882;28;20449;-55
2021/10/12 06:38:01;;;;;;;15.70;12.65;;;10.50;99.90;;;;;;4950218;28;20221;-58
2021/10/12 06:40:27;;;;;;;14.40;12.70;;;10.40;99.90;;;;;;4950432;28;20188;-58
2021/10/12 06:42:53;;;;;;;15.60;12.10;;;10.50;99.90;;;;;;4953373;28;20191;-58
2021/10/12 06:45:19;;;;;;;16.27;12.07;;;10.00;99.90;;;;;;4951435;28;20189;-57
2021/10/12 06:47:46;;;;;;;18.35;13.20;;;10.50;99.90;;;;;;4953374;28;20473;-57
2021/10/12 06:50:13;;;;;;;20.77;13.38;;;10.90;99.90;;;;;;4953204;28;20185;-57
2021/10/12 06:52:39;;;;;;;13.77;11.65;;;10.60;99.90;;;;;;4948403;28;20185;-57
2021/10/12 06:55:07;;;;;;;12.23;10.93;;;10.50;99.90;;;;;;4951481;28;20681;-56
2021/10/12 06:57:34;;;;;;;15.25;11.60;;;10.70;99.90;;;;;;4943796;28;20217;-56
2021/10/12 06:59:59;;;;;;;13.00;10.95;;;10.90;99.90;;;;;;4946196;28;20276;-57
2021/10/12 07:02:25;;;;;;;14.63;11.20;;;10.90;99.90;;;;;;4955336;28;20192;-56
2021/10/12 07:04:51;;;;;;;14.33;10.50;;;10.90;99.90;;;;;;4953236;28;20292;-61
2021/10/12 07:07:16;;;;;;;12.33;10.13;;;10.80;99.90;;;;;;4951250;29;20247;-61
2021/10/12 07:09:42;;;;;;;11.00;9.80;;;10.60;99.90;;;;;;4947585;28;20303;-62
2021/10/12 07:12:08;;;;;;;14.47;12.47;;;10.80;99.90;;;;;;4952052;29;20186;-61
2021/10/12 07:14:34;;;;;;;14.30;11.93;;;10.80;99.90;;;;;;4947264;28;20467;-59
2021/10/12 07:17:00;;;;;;;19.60;13.35;;;10.50;99.90;;;;;;4955646;28;20200;-59
2021/10/12 07:19:26;;;;;;;19.93;14.83;;;10.30;99.90;;;;;;4950061;28;20201;-56
2021/10/12 07:21:53;;;;;;;15.63;12.90;;;10.40;99.90;;;;;;4950884;28;20217;-55
2021/10/12 07:24:19;;;;;;;20.27;13.85;;;10.80;99.90;;;;;;4949523;28;20201;-56
2021/10/12 07:26:45;;;;;;;22.30;15.10;;;10.90;99.90;;;;;;4957628;28;20693;-55
2021/10/12 07:29:10;;;;;;;18.00;12.50;;;10.50;99.90;;;;;;4953109;28;20616;-58
2021/10/12 07:31:36;;;;;;;13.83;10.80;;;10.80;99.90;;;;;;4948904;29;20647;-58
2021/10/12 07:34:02;;;;;;;15.83;11.20;;;10.80;99.90;;;;;;4950994;28;20602;-58
2021/10/12 07:36:28;;;;;;;16.60;11.53;;;11.10;99.90;;;;;;4956253;28;20981;-55
2021/10/12 07:38:53;;;;;;;15.87;11.00;;;10.90;99.90;;;;;;4950977;28;20222;-55
2021/10/12 07:41:20;;;;;;;12.23;10.07;;;10.70;99.90;;;;;;4951451;28;20276;-55
2021/10/12 07:43:45;;;;;;;11.60;10.40;;;10.90;99.90;;;;;;4950503;28;20181;-56
2021/10/12 07:46:11;;;;;;;14.43;11.03;;;10.80;99.90;;;;;;4946307;28;20210;-56
2021/10/12 07:48:37;;;;;;;13.93;10.70;;;11.00;99.90;;;;;;4948138;28;20690;-54
2021/10/12 07:51:03;;;;;;;12.03;9.33;;;10.90;99.90;;;;;;4955976;28;20264;-54
2021/10/12 07:53:30;;;;;;;12.80;9.63;;;11.00;99.90;;;;;;4958960;28;20237;-56
2021/10/12 07:55:59;;;;;;;10.27;9.23;;;11.30;99.90;;;;;;4950789;28;20204;-56
2021/10/12 07:58:25;;;;;;;10.85;9.00;;;11.20;99.90;;;;;;4950248;28;20292;-56
2021/10/12 08:00:51;;;;;;;10.37;9.00;;;11.10;99.90;;;;;;4954705;28;20300;-55
2021/10/12 08:03:17;;;;;;;13.43;9.13;;;11.00;99.90;;;;;;4952266;28;20448;-54
2021/10/12 08:05:43;;;;;;;12.20;9.65;;;11.20;99.90;;;;;;4951867;28;20512;-57
2021/10/12 08:08:09;;;;;;;10.63;8.93;;;11.20;99.90;;;;;;4952163;28;20208;-56
2021/10/12 08:10:36;;;;;;;13.13;8.90;;;11.10;99.90;;;;;;4952795;28;20185;-55
2021/10/12 08:13:06;;;;;;;11.13;7.93;;;11.50;99.90;;;;;;4953870;28;20421;-54
2021/10/12 08:15:32;;;;;;;9.50;8.15;;;11.20;99.90;;;;;;4950483;28;20747;-58
2021/10/12 08:17:58;;;;;;;10.32;8.10;;;11.40;99.90;;;;;;4968646;28;20204;-53
2021/10/12 08:20:24;;;;;;;9.30;7.80;;;11.60;99.90;;;;;;4951599;28;20228;-53
2021/10/12 08:22:50;;;;;;;7.43;6.47;;;11.80;99.90;;;;;;4952424;28;20457;-55
2021/10/12 08:25:16;;;;;;;9.87;7.53;;;12.00;99.90;;;;;;4949403;28;20522;-55
2021/10/12 08:27:42;;;;;;;8.37;6.37;;;11.70;99.90;;;;;;4959120;28;20803;-54
2021/10/12 08:30:09;;;;;;;9.63;7.90;;;11.70;99.90;;;;;;4949560;28;20238;-54
2021/10/12 08:32:35;;;;;;;8.10;6.88;;;12.20;99.90;;;;;;4954439;28;20534;-55
2021/10/12 08:35:02;;;;;;;6.90;6.20;;;12.10;99.90;;;;;;4953981;28;20281;-55
2021/10/12 08:37:27;;;;;;;9.32;6.07;;;12.30;99.90;;;;;;4952241;28;20932;-55
2021/10/12 08:39:53;;;;;;;8.30;6.63;;;12.30;99.90;;;;;;4951830;28;20229;-55
2021/10/12 08:42:36;;;;;;;7.57;6.00;;;12.30;99.90;;;;;;4955962;28;20278;-55
2021/10/12 08:45:05;;;;;;;6.78;5.72;;;12.50;99.90;;;;;;4945309;28;20272;-56
2021/10/12 08:47:32;;;;;;;6.68;5.63;;;12.80;99.90;;;;;;4951416;28;20293;-56
2021/10/12 08:49:59;;;;;;;8.82;5.38;;;12.80;99.90;;;;;;4953544;28;20285;-56
2021/10/12 08:52:25;;;;;;;7.90;5.30;;;12.70;99.90;;;;;;4949963;28;20215;-58
2021/10/12 08:54:53;;;;;;;5.65;5.10;;;12.70;99.90;;;;;;4953776;28;20267;-58
2021/10/12 08:57:31;;;;;;;7.03;5.20;;;13.00;99.90;;;;;;4953844;28;20191;-55
2021/10/12 09:00:00;;;;;;;7.07;5.60;;;13.00;99.90;;;;;;4953734;28;20242;-54
2021/10/12 09:02:27;;;;;;;6.40;5.80;;;12.80;99.90;;;;;;4949235;28;20204;-56
2021/10/12 09:04:54;;;;;;;8.73;5.57;;;12.70;99.90;;;;;;4952803;29;20191;-55
2021/10/12 09:07:26;;;;;;;8.80;5.30;;;12.60;99.90;;;;;;4949881;28;20207;-55
2021/10/12 09:09:55;;;;;;;6.35;4.95;;;12.80;99.90;;;;;;4957336;28;20207;-55
2021/10/12 09:12:40;;;;;;;5.57;5.05;;;12.80;99.90;;;;;;4950724;28;20188;-56
2021/10/12 09:15:06;;;;;;;6.40;5.15;;;12.60;99.90;;;;;;4951440;28;20181;-56
2021/10/12 09:17:38;;;;;;;5.80;5.20;;;12.80;99.90;;;;;;4956375;28;20200;-57
2021/10/12 09:20:23;;;;;;;6.55;5.57;;;13.00;99.90;;;;;;4953170;28;20300;-56
2021/10/12 09:23:04;;;;;;;8.13;5.75;;;13.20;99.90;;;;;;4951197;28;20198;-57
2021/10/12 09:25:48;;;;;;;6.15;5.55;;;13.10;99.90;;;;;;4953610;28;20287;-55
2021/10/12 09:28:25;;;;;;;5.13;4.72;;;13.20;99.90;;;;;;4954655;28;20295;-57
2021/10/12 09:30:54;;;;;;;6.72;5.93;;;13.40;99.90;;;;;;4958086;28;20550;-55
2021/10/12 09:33:20;;;;;;;6.35;5.03;;;13.60;99.90;;;;;;4948439;28;20192;-55
2021/10/12 09:35:46;;;;;;;6.22;5.53;;;13.30;99.90;;;;;;4952511;28;20181;-55
2021/10/12 09:38:13;;;;;;;6.83;4.90;;;13.40;99.90;;;;;;4954496;28;20746;-53
2021/10/12 09:40:44;;;;;;;6.53;5.82;;;13.50;99.90;;;;;;4954376;28;20192;-57
2021/10/12 09:43:10;;;;;;;5.93;4.80;;;13.40;99.90;;;;;;4956235;28;20185;-56
2021/10/12 09:45:40;;;;;;;8.57;5.55;;;13.10;99.90;;;;;;4948817;28;20767;-56
2021/10/12 09:48:33;;;;;;;6.03;5.25;;;12.90;99.90;;;;;;4959642;28;20213;-54
2021/10/12 09:51:13;;;;;;;6.05;5.15;;;13.00;99.90;;;;;;4954018;28;20333;-54
2021/10/12 09:53:41;;;;;;;5.40;4.90;;;12.90;99.90;;;;;;4950640;28;20184;-55
2021/10/12 09:56:07;;;;;;;9.25;5.00;;;13.00;99.90;;;;;;4955127;28;20188;-57
2021/10/12 09:58:34;;;;;;;5.82;5.22;;;13.10;99.90;;;;;;4947939;28;20212;-56
2021/10/12 10:01:02;;;;;;;6.13;4.78;;;13.30;99.90;;;;;;4943638;28;20191;-56
2021/10/12 10:03:29;;;;;;;4.82;4.32;;;13.00;99.90;;;;;;4952210;28;20666;-57
2021/10/12 10:05:59;;;;;;;6.18;5.13;;;13.00;99.90;;;;;;4952492;28;20213;-55
2021/10/12 10:08:30;;;;;;;7.03;6.18;;;12.80;99.90;;;;;;4947272;28;20204;-57
2021/10/12 10:10:57;;;;;;;6.40;5.60;;;12.60;99.90;;;;;;4949146;28;20219;-56
2021/10/12 10:13:28;;;;;;;6.13;4.38;;;12.50;99.90;;;;;;4951829;28;20232;-57
2021/10/12 10:15:54;;;;;;;5.18;4.60;;;12.50;99.90;;;;;;4950530;28;20181;-56
2021/10/12 10:18:22;;;;;;;6.32;5.07;;;12.70;99.90;;;;;;4950969;28;20219;-54
2021/10/12 10:20:53;;;;;;;6.85;6.15;;;12.70;99.90;;;;;;4946473;28;20194;-54
2021/10/12 10:24:08;;;;;;;8.82;6.55;;;12.60;99.90;;;;;;4951979;28;21003;-57
2021/10/12 10:26:41;;;;;;;7.75;6.15;;;12.70;99.90;;;;;;4952324;28;20745;-55
2021/10/12 10:29:27;;;;;;;6.88;6.18;;;12.70;99.90;;;;;;4954049;28;20219;-56
2021/10/12 10:32:00;;;;;;;7.50;6.75;;;12.60;99.90;;;;;;4950710;28;20218;-55
2021/10/12 10:34:27;;;;;;;7.22;6.32;;;12.70;99.90;;;;;;4946971;28;20239;-54
2021/10/12 10:37:18;;;;;;;10.82;7.55;;;12.90;99.90;;;;;;4940689;28;20201;-56
2021/10/12 10:39:54;;;;;;;6.70;5.25;;;12.50;99.90;;;;;;4940289;29;20220;-55
2021/10/12 10:42:25;;;;;;;6.90;5.70;;;12.80;99.90;;;;;;4939679;29;20246;-56
2021/10/12 10:44:55;;;;;;;6.90;6.20;;;13.10;99.90;;;;;;4955442;28;20189;-56
2021/10/12 10:47:42;;;;;;;9.18;6.65;;;13.50;99.90;;;;;;4943355;29;20707;-56
2021/10/12 10:50:26;;;;;;;6.40;5.80;;;13.70;99.90;;;;;;4951208;28;20213;-56
2021/10/12 10:52:57;;;;;;;8.70;6.85;;;13.80;99.90;;;;;;4944426;28;20200;-56
2021/10/12 10:55:26;;;;;;;6.40;5.38;;;14.30;99.90;;;;;;4935600;28;20182;-56
2021/10/12 10:58:13;;;;;;;8.98;6.03;;;15.00;99.90;;;;;;4947008;28;20239;-56
2021/10/12 11:00:49;;;;;;;7.57;6.22;;;15.30;99.90;;;;;;4932907;29;20190;-56
2021/10/12 11:03:44;;;;;;;6.72;6.05;;;15.20;99.90;;;;;;4949207;29;20192;-56
2021/10/12 11:06:15;;;;;;;6.05;4.90;;;14.80;99.90;;;;;;4925982;29;20221;-56
2021/10/12 11:08:55;;;;;;;5.57;5.07;;;14.60;99.90;;;;;;4934983;29;20951;-56
2021/10/12 11:11:20;;;;;;;5.95;4.40;;;14.60;99.90;;;;;;4937161;29;20184;-56
2021/10/12 11:13:46;;;;;;;6.20;5.57;;;14.80;99.90;;;;;;4949667;28;20279;-55
2021/10/12 11:16:16;;;;;;;5.53;3.80;;;14.60;99.90;;;;;;4941658;28;20729;-55
2021/10/12 11:18:44;;;;;;;5.15;4.70;;;14.40;99.90;;;;;;4947519;28;20234;-55
2021/10/12 11:21:12;;;;;;;6.32;4.63;;;14.40;99.90;;;;;;4950804;28;20548;-55
2021/10/12 11:23:58;;;;;;;7.43;4.78;;;14.60;99.90;;;;;;4945527;28;20199;-58
2021/10/12 11:26:27;;;;;;;7.45;5.18;;;14.40;99.90;;;;;;4948524;28;20204;-57
2021/10/12 11:28:55;;;;;;;8.55;5.05;;;14.40;99.90;;;;;;4940502;29;20205;-56
2021/10/12 11:31:31;;;;;;;6.95;5.30;;;14.50;99.90;;;;;;4945864;28;20176;-56
2021/10/12 11:34:02;;;;;;;7.53;6.05;;;14.40;99.90;;;;;;4947085;28;20181;-56
2021/10/12 11:36:30;;;;;;;7.65;5.13;;;14.40;99.90;;;;;;4949976;28;20638;-55
2021/10/12 11:38:59;;;;;;;5.85;4.80;;;14.10;99.90;;;;;;4952909;28;20465;-56
2021/10/12 11:41:34;;;;;;;5.32;4.82;;;14.30;99.90;;;;;;4952364;28;20219;-56
2021/10/12 11:44:13;;;;;;;5.22;4.72;;;14.20;99.90;;;;;;4951916;28;20975;-56
2021/10/12 11:47:10;;;;;;;4.65;4.20;;;14.50;99.90;;;;;;4953702;28;20810;-55
2021/10/12 11:49:37;;;;;;;6.22;3.70;;;14.40;99.90;;;;;;4951397;28;22048;-56
2021/10/12 11:52:08;;;;;;;4.63;3.78;;;14.80;99.90;;;;;;4948577;29;20189;-56
2021/10/12 11:54:35;;;;;;;5.47;4.88;;;15.00;99.90;;;;;;4953720;29;20330;-56
2021/10/12 11:57:02;;;;;;;5.95;3.70;;;14.60;99.90;;;;;;4955181;28;20207;-56
2021/10/12 11:59:36;;;;;;;6.25;4.57;;;14.90;99.90;;;;;;4951339;28;20316;-55
2021/10/12 12:02:07;;;;;;;4.60;3.50;;;15.00;99.90;;;;;;4953447;28;20189;-56
2021/10/12 12:04:37;;;;;;;4.30;3.90;;;15.10;99.90;;;;;;4954267;28;20279;-56
2021/10/12 12:07:08;;;;;;;6.65;3.70;;;14.50;99.90;;;;;;4948335;28;20213;-56
2021/10/12 12:09:38;;;;;;;5.38;3.78;;;15.00;99.90;;;;;;4949836;28;20240;-57
2021/10/12 12:12:05;;;;;;;5.18;3.90;;;15.30;99.90;;;;;;4955883;28;20247;-55
2021/10/12 12:14:32;;;;;;;4.80;3.50;;;15.00;99.90;;;;;;4953316;28;20181;-55
2021/10/12 12:17:27;;;;;;;5.43;3.50;;;15.20;99.90;;;;;;4956219;28;20662;-56
2021/10/12 12:19:58;;;;;;;5.05;4.13;;;15.30;99.90;;;;;;4951765;28;20385;-57
2021/10/12 12:22:31;;;;;;;4.72;3.78;;;15.30;99.90;;;;;;4955566;28;20259;-55
2021/10/12 12:24:57;;;;;;;5.28;3.75;;;15.50;99.50;;;;;;4952038;28;20189;-57
2021/10/12 12:27:23;;;;;;;3.80;3.47;;;15.20;98.90;;;;;;4953758;29;20219;-58
2021/10/12 12:30:08;;;;;;;4.75;3.85;;;14.80;98.40;;;;;;4950533;28;20689;-54
2021/10/12 12:32:35;;;;;;;4.20;3.55;;;15.00;98.90;;;;;;4952540;28;20231;-55
2021/10/12 12:35:08;;;;;;;4.70;4.25;;;15.20;99.60;;;;;;4954019;29;20715;-55
2021/10/12 12:37:35;;;;;;;4.13;3.55;;;15.20;98.70;;;;;;4948578;29;20193;-54